PWSweather.com
Personal Weather Stations
Station Observations
KCAPARAD1
Greenthumb Ln Near Elliott Rd, Paradise, CA 95969

Greenthumb Ln Near Elliott RdParadise, CA 95969

Lat: 39.759, Lon: -121.612

Elevation: 1824

Station Type: Davis Vantage Pro2 Plus

http://paradiseweatherstation.org

Latest ConditionsUpdated 5:00:01 AM PDT Friday, Jun 23, 2017
Currently Today's Max Today's Min Today's Average
Temperature 72.7°F22.6°C 77.6°F25.3°C 72.6°F22.6°C 75.1°F23.9°C
Dew Point 51.3°F10.7°C 58.6°F14.8°C 51.3°F10.7°C 54.6°F12.6°C
Winds Calm Calm Calm NECalm NE - Calm Calm
Wind Gusts 1.2 mph1.9 kmh 2.3 mph3.7 kmh - -
Humidity 47% 54% 45% 49%
Pressure 29.72 in1006.4 mb 29.72 in1006.4 mb 29.68 in1005.1 mb -
Hour Temp Dew Point Humidity Winds Wind Gusts Pressure Precip Precip Rate Daily Precip Total
05:00 AM 72.7°F22.6°C 51.3°F10.7°C 47% Calm Calm 1.2 mph1.9 kmh 29.72 in1006.4 mb - 0.00 in0.0 mm 0.00 in0.0 mm
04:55 AM 72.6°F22.6°C 51.8°F11.0°C 48% Calm Calm 1.2 mph1.9 kmh 29.72 in1006.4 mb - 0.00 in0.0 mm 0.00 in0.0 mm
04:50 AM 72.7°F22.6°C 52.4°F11.3°C 49% Calm Calm -- 29.72 in1006.4 mb - 0.00 in0.0 mm 0.00 in0.0 mm
04:45 AM 72.7°F22.6°C 52.4°F11.3°C 49% Calm Calm 1.2 mph1.9 kmh 29.72 in1006.4 mb - 0.00 in0.0 mm 0.00 in0.0 mm
04:40 AM 72.8°F22.7°C 52.5°F11.4°C 49% Calm Calm 1.2 mph1.9 kmh 29.72 in1006.4 mb - 0.00 in0.0 mm 0.00 in0.0 mm
04:35 AM 72.8°F22.7°C 53.1°F11.7°C 50% Calm Calm -- 29.72 in1006.4 mb - 0.00 in0.0 mm 0.00 in0.0 mm
04:30 AM 72.8°F22.7°C 52.5°F11.4°C 49% Calm Calm -- 29.71 in1006.1 mb - 0.00 in0.0 mm 0.00 in0.0 mm
04:25 AM 72.8°F22.7°C 52.5°F11.4°C 49% Calm Calm -- 29.71 in1006.1 mb - 0.00 in0.0 mm 0.00 in0.0 mm
04:20 AM 72.8°F22.7°C 53.1°F11.7°C 50% Calm Calm -- 29.71 in1006.1 mb - 0.00 in0.0 mm 0.00 in0.0 mm
04:15 AM 73.0°F22.8°C 52.7°F11.5°C 49% Calm Calm -- 29.71 in1006.1 mb - 0.00 in0.0 mm 0.00 in0.0 mm
04:10 AM 73.1°F22.8°C 52.8°F11.6°C 49% Calm Calm -- 29.71 in1006.1 mb - 0.00 in0.0 mm 0.00 in0.0 mm
04:00 AM 73.3°F22.9°C 53.0°F11.7°C 49% Calm Calm -- 29.70 in1005.8 mb - 0.00 in0.0 mm 0.00 in0.0 mm
03:55 AM 73.4°F23.0°C 53.0°F11.7°C 49% Calm Calm -- 29.70 in1005.8 mb - 0.00 in0.0 mm 0.00 in0.0 mm
03:50 AM 73.4°F23.0°C 53.1°F11.7°C 49% Calm Calm -- 29.70 in1005.8 mb - 0.00 in0.0 mm 0.00 in0.0 mm
03:45 AM 73.5°F23.1°C 53.2°F11.8°C 49% Calm Calm -- 29.70 in1005.8 mb - 0.00 in0.0 mm 0.00 in0.0 mm
03:40 AM 73.7°F23.2°C 53.9°F12.2°C 50% Calm Calm -- 29.70 in1005.8 mb - 0.00 in0.0 mm 0.00 in0.0 mm
03:35 AM 74.1°F23.4°C 53.1°F11.7°C 48% Calm Calm -- 29.70 in1005.8 mb - 0.00 in0.0 mm 0.00 in0.0 mm
03:30 AM 74.4°F23.6°C 53.4°F11.9°C 48% Calm Calm -- 29.70 in1005.8 mb - 0.00 in0.0 mm 0.00 in0.0 mm
03:25 AM 74.7°F23.7°C 53.1°F11.7°C 47% Calm Calm 1.2 mph1.9 kmh 29.70 in1005.8 mb - 0.00 in0.0 mm 0.00 in0.0 mm
03:20 AM 74.9°F23.8°C 52.7°F11.5°C 46% Calm Calm -- 29.70 in1005.8 mb - 0.00 in0.0 mm 0.00 in0.0 mm
03:15 AM 74.9°F23.8°C 52.1°F11.2°C 45% Calm Calm 2.3 mph3.7 kmh 29.70 in1005.8 mb - 0.00 in0.0 mm 0.00 in0.0 mm
03:10 AM 75.2°F24.0°C 52.4°F11.3°C 45% Calm Calm -- 29.70 in1005.8 mb - 0.00 in0.0 mm 0.00 in0.0 mm
03:00 AM 75.4°F24.1°C 52.6°F11.4°C 45% Calm Calm -- 29.70 in1005.8 mb - 0.00 in0.0 mm 0.00 in0.0 mm
02:55 AM 75.5°F24.2°C 53.3°F11.8°C 46% Calm Calm -- 29.70 in1005.8 mb - 0.00 in0.0 mm 0.00 in0.0 mm
02:50 AM 75.7°F24.3°C 52.8°F11.6°C 45% Calm Calm -- 29.70 in1005.8 mb - 0.00 in0.0 mm 0.00 in0.0 mm
02:45 AM 75.7°F24.3°C 52.8°F11.6°C 45% Calm Calm -- 29.70 in1005.8 mb - 0.00 in0.0 mm 0.00 in0.0 mm
02:40 AM 75.7°F24.3°C 52.8°F11.6°C 45% Calm Calm 1.2 mph1.9 kmh 29.70 in1005.8 mb - 0.00 in0.0 mm 0.00 in0.0 mm
02:35 AM 75.8°F24.3°C 52.9°F11.6°C 45% Calm Calm -- 29.70 in1005.8 mb - 0.00 in0.0 mm 0.00 in0.0 mm
02:30 AM 76.0°F24.4°C 53.7°F12.1°C 46% Calm Calm -- 29.70 in1005.8 mb - 0.00 in0.0 mm 0.00 in0.0 mm
02:25 AM 76.1°F24.5°C 53.8°F12.1°C 46% Calm Calm -- 29.70 in1005.8 mb - 0.00 in0.0 mm 0.00 in0.0 mm
02:20 AM 76.0°F24.4°C 53.7°F12.1°C 46% Calm Calm 1.2 mph1.9 kmh 29.70 in1005.8 mb - 0.00 in0.0 mm 0.00 in0.0 mm
02:15 AM 75.9°F24.4°C 54.2°F12.3°C 47% Calm Calm 1.2 mph1.9 kmh 29.70 in1005.8 mb - 0.00 in0.0 mm 0.00 in0.0 mm
02:10 AM 76.1°F24.5°C 54.4°F12.4°C 47% Calm Calm -- 29.70 in1005.8 mb - 0.00 in0.0 mm 0.00 in0.0 mm
02:00 AM 76.1°F24.5°C 55.0°F12.8°C 48% Calm Calm -- 29.69 in1005.4 mb - 0.00 in0.0 mm 0.00 in0.0 mm
01:55 AM 76.0°F24.4°C 54.9°F12.7°C 48% Calm Calm 2.3 mph3.7 kmh 29.69 in1005.4 mb - 0.00 in0.0 mm 0.00 in0.0 mm
01:50 AM 76.3°F24.6°C 55.7°F13.2°C 49% Calm Calm 1.2 mph1.9 kmh 29.69 in1005.4 mb - 0.00 in0.0 mm 0.00 in0.0 mm
01:45 AM 76.6°F24.8°C 55.4°F13.0°C 48% Calm Calm -- 29.69 in1005.4 mb - 0.00 in0.0 mm 0.00 in0.0 mm
01:40 AM 76.3°F24.6°C 55.7°F13.2°C 49% Calm Calm 1.2 mph1.9 kmh 29.69 in1005.4 mb - 0.00 in0.0 mm 0.00 in0.0 mm
01:35 AM 76.3°F24.6°C 56.3°F13.5°C 50% Calm Calm 1.2 mph1.9 kmh 29.69 in1005.4 mb - 0.00 in0.0 mm 0.00 in0.0 mm
01:30 AM 76.3°F24.6°C 56.3°F13.5°C 50% Calm Calm 1.2 mph1.9 kmh 29.69 in1005.4 mb - 0.00 in0.0 mm 0.00 in0.0 mm
01:25 AM 76.3°F24.6°C 56.3°F13.5°C 50% Calm Calm 1.2 mph1.9 kmh 29.69 in1005.4 mb - 0.00 in0.0 mm 0.00 in0.0 mm
01:20 AM 76.2°F24.6°C 56.2°F13.4°C 50% Calm Calm 1.2 mph1.9 kmh 29.69 in1005.4 mb - 0.00 in0.0 mm 0.00 in0.0 mm
01:15 AM 76.1°F24.5°C 56.7°F13.7°C 51% Calm Calm -- 29.69 in1005.4 mb - 0.00 in0.0 mm 0.00 in0.0 mm
01:10 AM 76.1°F24.5°C 56.7°F13.7°C 51% Calm Calm 1.2 mph1.9 kmh 29.69 in1005.4 mb - 0.00 in0.0 mm 0.00 in0.0 mm
01:00 AM 76.0°F24.4°C 57.1°F13.9°C 52% Calm Calm -- 29.69 in1005.4 mb - 0.00 in0.0 mm 0.00 in0.0 mm
12:55 AM 76.2°F24.6°C 57.3°F14.1°C 52% Calm Calm -- 29.68 in1005.1 mb - 0.00 in0.0 mm 0.00 in0.0 mm
12:50 AM 76.2°F24.6°C 57.3°F14.1°C 52% Calm Calm -- 29.68 in1005.1 mb - 0.00 in0.0 mm 0.00 in0.0 mm
12:45 AM 76.2°F24.6°C 57.3°F14.1°C 52% Calm Calm 1.2 mph1.9 kmh 29.68 in1005.1 mb - 0.00 in0.0 mm 0.00 in0.0 mm
12:40 AM 76.2°F24.6°C 57.3°F14.1°C 52% Calm Calm -- 29.68 in1005.1 mb - 0.00 in0.0 mm 0.00 in0.0 mm
12:35 AM 76.3°F24.6°C 57.9°F14.4°C 53% Calm Calm -- 29.68 in1005.1 mb - 0.00 in0.0 mm 0.00 in0.0 mm
12:30 AM 76.5°F24.7°C 58.6°F14.8°C 54% Calm Calm -- 29.68 in1005.1 mb - 0.00 in0.0 mm 0.00 in0.0 mm
12:25 AM 76.6°F24.8°C 58.2°F14.6°C 53% Calm Calm -- 29.68 in1005.1 mb - 0.00 in0.0 mm 0.00 in0.0 mm
12:20 AM 76.8°F24.9°C 58.4°F14.7°C 53% Calm Calm -- 29.68 in1005.1 mb - 0.00 in0.0 mm 0.00 in0.0 mm
12:15 AM 77.0°F25.0°C 58.0°F14.4°C 52% Calm Calm -- 29.68 in1005.1 mb - 0.00 in0.0 mm 0.00 in0.0 mm
12:10 AM 77.2°F25.1°C 57.7°F14.3°C 51% Calm Calm -- 29.68 in1005.1 mb - 0.00 in0.0 mm 0.00 in0.0 mm
12:00 AM 77.6°F25.3°C 58.0°F14.4°C 51% Calm Calm -- 29.68 in1005.1 mb - 0.00 in0.0 mm 0.00 in0.0 mm